San Francisco, CA

7:53 PM PST on February 25, 2017 (GMT -0800)
The Castro | | Change Station
Active Advisory: Beach Hazard Statement

Elev 207 ft 37.76 °N, 122.44 °W | Updated 18 seconds ago

Overcast
Overcast
50.0 °F
Feels Like 50.0 °F
N
3.0
Wind Variable Wind from NNW

Today
High -- | Low -- °F
--% Chance of Precip.
Yesterday
High -- | Low -- °F
Precip. -- in
Pressure 30.03 in
Visibility 10.0 miles
Clouds Few 4500 ft
Mostly Cloudy 12000 ft
Dew Point 44 °F
Humidity 81%
Rainfall 0.00 in
Snow Depth Not available.
6:46 AM 5:59 PM
Waning Crescent, 0% visible
METAR KSFO 260256Z 28005KT 10SM FEW045 BKN120 10/03 A3003 RMK AO2 SLP168 T01000033 56015
Pressure 30.03 in
Visibility 10.0 miles
Clouds Few 4500 ft
Mostly Cloudy 12000 ft
Dew Point 44 °F
Humidity 81%
Rainfall 0.00 in
Snow Depth Not available.
6:46 AM 5:59 PM
Waning Crescent, 0% visible
METAR KSFO 260256Z 28005KT 10SM FEW045 BKN120 10/03 A3003 RMK AO2 SLP168 T01000033 56015

Get Your Daily Forecast Email!

Thanks for signing up!

Be on the lookout for a verification email in your inbox.

You'll start receiving the daily forecast at 8 AM.

×

10-Day Weather Forecast

Almanac

Astronomy

Feb. 25, 2017 Rise Set
Actual Time
Civil Twilight
Nautical Twilight
Astronomical Twilight
Moon
Length of Visible Light
Length of Day
Tomorrow will be .
, % of the Moon is Illuminated

Today's Extremes

State Highs State Lows

Community

WunderPhotos

Upload Photos

1,962,540 photos uploaded!

WunderBlog® & News

Nearby

Air Quality

  Air Quality AQ Index Pollutant
Not available.

Snow Depth

Station Depth Elevation

Earthquake Activity

City Distance Mag. Time & Date
Minimum magnitude displayed is 2.5.

Coastal Water Temperatures

Place Temperature

Stations

Nearby Weather Stations

Station Location Temp. Windchill Dew Point Humidity Wind Precip. Elev Updated Type
                   

Watches & Warnings

Beach Hazard Statement
Issued: 2:32 PM PST Feb. 25, 2017 – National Weather Service

... Beach hazards statement now in effect from late tonight
through Sunday afternoon...

* hazards... sneaker waves.

* Timing... early Sunday morning through Sunday evening. Peak
threat will be mid to late Sunday morning.

* Location... west facing beaches from Ano nuevo northward.

* Potential impacts... people being pulling into a cold turbulent
ocean... unwillingly.

Precautionary/preparedness actions...

A beach hazard statement for sneaker waves means that conditions
are present to support a heightened risk of unsuspecting beach
goers being swept into the sea by a wave. People walking along
the beach should never turn their back to the ocean. Fisherman
should avoid fishing from rocks or jetties.